Plaza, Connecticut
Current Conditions -  °F | °C
As of 3:15 AM on Tuesday 27 Jan 2015 (Local Time) from KOXC Reporting Station
Overcast Overcast  
Wind Chill: -3°   Ceiling: 500
Heat Index: 16°   Visibility: 0.25mi
Dew Point:   Wind: 24mph
Humidity: 68%   Direction: 20°NNE
Pressure: 29.62"   Gusts: 37mph
Location:  41.5872°N, 73.0315°W
Report Text: KOXC 270815Z 02021G32KT 1/4SM OVC005 M09/M14 A2962 RMK AO1
Loading
Personal Weather Stations






























Interactive Weather Map New forecast layout! Learn more

10-Day Weather Forecast

Advertisements
Track Severe Weather on mobile